createdAt,value
2019-05-10T00:05:41.526Z,9.51
2019-05-10T00:16:15.161Z,9.36
2019-05-10T00:26:48.525Z,9.37
2019-05-10T00:37:22.273Z,9.08
2019-05-10T00:47:55.844Z,8.99
2019-05-10T00:58:29.661Z,9.07
2019-05-10T01:09:03.462Z,8.87
2019-05-10T01:19:37.012Z,8.95
2019-05-10T01:30:10.571Z,8.88
2019-05-10T01:40:44.038Z,8.86
2019-05-10T01:51:17.541Z,8.73
2019-05-10T02:01:51.219Z,8.76
2019-05-10T02:12:24.663Z,8.84
2019-05-10T02:22:58.129Z,8.89
2019-05-10T02:33:31.980Z,8.81
2019-05-10T02:44:05.725Z,8.65
2019-05-10T02:54:39.202Z,7.23
2019-05-10T03:05:14.071Z,8.66
2019-05-10T03:15:50.463Z,8.52
2019-05-10T03:26:23.334Z,8.55
2019-05-10T03:36:56.173Z,8.76
2019-05-10T03:47:29.958Z,8.74
2019-05-10T03:58:03.521Z,8.75
2019-05-10T04:08:36.986Z,9.35
2019-05-10T04:19:10.521Z,11.36
2019-05-10T04:29:44.360Z,11.69
2019-05-10T04:40:17.841Z,11.92
2019-05-10T04:50:51.647Z,12.14
2019-05-10T05:01:25.290Z,10.63
2019-05-10T05:11:58.073Z,9.92
2019-05-10T05:22:31.541Z,8.77
2019-05-10T05:33:05.030Z,9.35
2019-05-10T05:43:45.744Z,9.65
2019-05-10T05:54:14.971Z,9.70
2019-05-10T06:04:50.001Z,10.07
2019-05-10T06:15:29.085Z,10.27
2019-05-10T06:25:58.454Z,10.50
2019-05-10T06:36:32.024Z,10.58
2019-05-10T06:47:08.213Z,10.89
2019-05-10T06:57:41.137Z,10.88
2019-05-10T07:08:19.953Z,11.22
2019-05-10T07:18:49.147Z,12.28
2019-05-10T07:29:29.924Z,13.41
2019-05-10T07:39:58.656Z,14.91
2019-05-10T07:50:32.210Z,14.00
2019-05-10T08:01:05.768Z,12.95
2019-05-10T08:11:39.342Z,11.84
2019-05-10T08:22:14.798Z,12.31
2019-05-10T08:32:47.647Z,12.74
2019-05-10T08:43:22.240Z,12.53
2019-05-10T08:53:58.397Z,11.90
2019-05-10T09:04:41.632Z,13.81
2019-05-10T09:15:10.181Z,16.82
2019-05-10T09:25:42.736Z,16.03
2019-05-10T09:36:16.474Z,15.56
2019-05-10T09:46:52.311Z,16.69
2019-05-10T09:57:27.716Z,16.14
2019-05-10T10:08:03.712Z,19.63
2019-05-10T10:18:37.102Z,17.92
2019-05-10T10:29:10.772Z,16.73
2019-05-10T10:39:44.237Z,17.37
2019-05-10T10:50:18.040Z,17.05
2019-05-10T11:00:55.532Z,17.41
2019-05-10T11:11:32.498Z,16.41
2019-05-10T11:22:09.497Z,17.40
2019-05-10T11:32:41.809Z,17.85
2019-05-10T11:43:17.398Z,18.98
2019-05-10T11:53:55.409Z,19.72
2019-05-10T12:04:37.998Z,19.63
2019-05-10T12:15:04.420Z,19.76
2019-05-10T12:25:51.490Z,19.38
2019-05-10T12:36:22.359Z,18.96
2019-05-10T12:46:47.033Z,19.02
2019-05-10T12:57:20.742Z,18.36
2019-05-10T13:07:53.634Z,18.71
2019-05-10T13:18:48.274Z,17.78
2019-05-10T13:29:08.114Z,17.08
2019-05-10T13:39:37.593Z,16.52
2019-05-10T13:50:10.316Z,16.49
2019-05-10T14:00:44.021Z,17.21
2019-05-10T14:11:17.652Z,16.89
2019-05-10T14:21:50.562Z,17.75
2019-05-10T14:32:24.206Z,18.04
2019-05-10T14:42:57.572Z,17.91
2019-05-10T14:53:31.123Z,17.14
2019-05-10T15:04:04.553Z,16.17
2019-05-10T15:14:38.222Z,15.99
2019-05-10T15:25:11.801Z,15.95
2019-05-10T15:35:45.721Z,15.85
2019-05-10T15:46:23.248Z,15.62
2019-05-10T15:56:56.094Z,15.45
2019-05-10T16:07:29.496Z,14.43
2019-05-10T16:18:02.402Z,14.26
2019-05-10T16:28:36.068Z,13.85
2019-05-10T16:39:09.632Z,13.85
2019-05-10T16:49:47.650Z,13.87
2019-05-10T17:00:19.388Z,13.57
2019-05-10T17:10:52.880Z,13.41
2019-05-10T17:21:26.320Z,13.19
2019-05-10T17:31:59.955Z,13.14
2019-05-10T17:42:35.618Z,13.12
2019-05-10T17:53:08.485Z,13.14
2019-05-10T18:03:42.174Z,13.08
2019-05-10T18:14:18.059Z,13.08
2019-05-10T18:24:51.333Z,12.93
2019-05-10T18:35:24.829Z,12.90
2019-05-10T18:46:01.335Z,12.89
2019-05-10T18:56:34.025Z,12.84
2019-05-10T19:07:10.277Z,12.78
2019-05-10T19:17:45.827Z,12.64
2019-05-10T19:28:20.883Z,12.54
2019-05-10T19:38:53.311Z,12.47
2019-05-10T19:49:27.927Z,12.40
2019-05-10T20:00:01.597Z,12.35
2019-05-10T20:10:36.223Z,12.11
2019-05-10T20:21:09.924Z,12.25
2019-05-10T20:31:43.869Z,12.28
2019-05-10T20:42:17.376Z,12.39
2019-05-10T20:52:50.128Z,12.31
2019-05-10T21:03:23.706Z,12.41
2019-05-10T21:13:57.970Z,12.44
2019-05-10T21:24:31.340Z,12.34
2019-05-10T21:35:04.853Z,12.22
2019-05-10T21:45:38.435Z,12.13
2019-05-10T21:56:11.996Z,12.03
2019-05-10T22:06:45.351Z,11.96
2019-05-10T22:17:18.838Z,11.87
2019-05-10T22:27:52.485Z,11.84
2019-05-10T22:38:25.986Z,11.84
2019-05-10T22:48:59.449Z,11.64
2019-05-10T22:59:32.215Z,11.45
2019-05-10T23:10:05.733Z,11.38
2019-05-10T23:20:39.405Z,11.56
2019-05-10T23:41:51.576Z,11.56
2019-05-10T23:52:25.144Z,11.48
